sensor_id;sensor_type;location;lat;lon;timestamp;P1;durP1;ratioP1;P2;durP2;ratioP2
32872;SDS011;19224;52.462;16.898;2023-12-20T00:00:39;2.95;;;2.40;;
32872;SDS011;19224;52.462;16.898;2023-12-20T00:03:10;2.42;;;2.17;;
32872;SDS011;19224;52.462;16.898;2023-12-20T00:05:41;3.98;;;2.50;;
32872;SDS011;19224;52.462;16.898;2023-12-20T00:08:11;2.83;;;2.37;;
32872;SDS011;19224;52.462;16.898;2023-12-20T00:10:59;2.37;;;2.17;;
32872;SDS011;19224;52.462;16.898;2023-12-20T00:13:13;2.50;;;2.30;;
32872;SDS011;19224;52.462;16.898;2023-12-20T00:15:44;2.50;;;2.02;;
32872;SDS011;19224;52.462;16.898;2023-12-20T00:18:17;2.35;;;1.90;;
32872;SDS011;19224;52.462;16.898;2023-12-20T00:20:49;2.45;;;2.10;;
32872;SDS011;19224;52.462;16.898;2023-12-20T00:23:24;2.92;;;2.02;;
32872;SDS011;19224;52.462;16.898;2023-12-20T00:25:54;3.87;;;2.40;;
32872;SDS011;19224;52.462;16.898;2023-12-20T00:28:26;2.42;;;1.90;;
32872;SDS011;19224;52.462;16.898;2023-12-20T00:30:56;2.40;;;1.90;;
32872;SDS011;19224;52.462;16.898;2023-12-20T00:33:33;1.95;;;1.75;;
32872;SDS011;19224;52.462;16.898;2023-12-20T00:35:58;3.77;;;2.83;;
32872;SDS011;19224;52.462;16.898;2023-12-20T00:38:29;2.42;;;1.90;;
32872;SDS011;19224;52.462;16.898;2023-12-20T00:41:03;2.22;;;1.87;;
32872;SDS011;19224;52.462;16.898;2023-12-20T00:43:39;3.55;;;1.90;;
32872;SDS011;19224;52.462;16.898;2023-12-20T00:46:07;2.22;;;1.90;;
32872;SDS011;19224;52.462;16.898;2023-12-20T00:48:44;2.00;;;1.60;;
32872;SDS011;19224;52.462;16.898;2023-12-20T00:51:12;1.60;;;1.50;;
32872;SDS011;19224;52.462;16.898;2023-12-20T00:53:43;2.00;;;1.60;;
32872;SDS011;19224;52.462;16.898;2023-12-20T00:56:14;2.35;;;1.90;;
32872;SDS011;19224;52.462;16.898;2023-12-20T00:58:45;2.47;;;1.60;;
32872;SDS011;19224;52.462;16.898;2023-12-20T01:01:15;3.62;;;2.00;;
32872;SDS011;19224;52.462;16.898;2023-12-20T01:03:46;3.10;;;1.60;;
32872;SDS011;19224;52.462;16.898;2023-12-20T01:06:17;2.20;;;1.72;;
32872;SDS011;19224;52.462;16.898;2023-12-20T01:08:48;2.37;;;1.70;;
32872;SDS011;19224;52.462;16.898;2023-12-20T01:11:18;4.37;;;1.77;;
32872;SDS011;19224;52.462;16.898;2023-12-20T01:13:48;2.30;;;1.92;;
32872;SDS011;19224;52.462;16.898;2023-12-20T01:16:19;2.05;;;1.80;;
32872;SDS011;19224;52.462;16.898;2023-12-20T01:18:49;3.90;;;2.00;;
32872;SDS011;19224;52.462;16.898;2023-12-20T01:21:19;1.87;;;1.77;;
32872;SDS011;19224;52.462;16.898;2023-12-20T01:23:49;1.98;;;1.70;;
32872;SDS011;19224;52.462;16.898;2023-12-20T01:26:19;2.52;;;2.05;;
32872;SDS011;19224;52.462;16.898;2023-12-20T01:28:50;1.85;;;1.70;;
32872;SDS011;19224;52.462;16.898;2023-12-20T01:31:21;2.30;;;1.80;;
32872;SDS011;19224;52.462;16.898;2023-12-20T01:33:54;2.00;;;1.82;;
32872;SDS011;19224;52.462;16.898;2023-12-20T01:36:26;1.85;;;1.75;;
32872;SDS011;19224;52.462;16.898;2023-12-20T01:39:03;2.47;;;1.80;;
32872;SDS011;19224;52.462;16.898;2023-12-20T01:41:34;2.60;;;2.10;;
32872;SDS011;19224;52.462;16.898;2023-12-20T01:44:05;3.08;;;2.30;;
32872;SDS011;19224;52.462;16.898;2023-12-20T01:46:44;2.50;;;2.10;;
32872;SDS011;19224;52.462;16.898;2023-12-20T01:49:16;3.45;;;1.92;;
32872;SDS011;19224;52.462;16.898;2023-12-20T01:51:48;3.00;;;2.10;;
32872;SDS011;19224;52.462;16.898;2023-12-20T01:54:25;2.67;;;2.10;;
32872;SDS011;19224;52.462;16.898;2023-12-20T01:56:51;2.50;;;2.30;;
32872;SDS011;19224;52.462;16.898;2023-12-20T01:59:22;8.00;;;2.55;;
32872;SDS011;19224;52.462;16.898;2023-12-20T02:01:53;13.43;;;8.03;;
32872;SDS011;19224;52.462;16.898;2023-12-20T02:04:24;2.95;;;2.65;;
32872;SDS011;19224;52.462;16.898;2023-12-20T02:06:57;2.50;;;2.30;;
32872;SDS011;19224;52.462;16.898;2023-12-20T02:09:35;2.40;;;2.20;;
32872;SDS011;19224;52.462;16.898;2023-12-20T02:12:08;2.75;;;2.35;;
32872;SDS011;19224;52.462;16.898;2023-12-20T02:14:40;3.12;;;2.30;;
32872;SDS011;19224;52.462;16.898;2023-12-20T02:17:15;2.55;;;2.30;;
32872;SDS011;19224;52.462;16.898;2023-12-20T02:19:47;2.42;;;2.17;;
32872;SDS011;19224;52.462;16.898;2023-12-20T02:22:20;2.47;;;2.12;;
32872;SDS011;19224;52.462;16.898;2023-12-20T02:24:51;2.17;;;1.92;;
32872;SDS011;19224;52.462;16.898;2023-12-20T02:27:27;2.72;;;2.00;;
32872;SDS011;19224;52.462;16.898;2023-12-20T02:29:58;2.42;;;2.22;;
32872;SDS011;19224;52.462;16.898;2023-12-20T02:32:29;2.47;;;2.27;;
32872;SDS011;19224;52.462;16.898;2023-12-20T02:34:59;3.87;;;2.50;;
32872;SDS011;19224;52.462;16.898;2023-12-20T02:37:29;2.50;;;2.30;;
32872;SDS011;19224;52.462;16.898;2023-12-20T02:40:01;2.50;;;2.30;;
32872;SDS011;19224;52.462;16.898;2023-12-20T02:42:32;2.55;;;2.35;;
32872;SDS011;19224;52.462;16.898;2023-12-20T02:45:03;3.62;;;2.85;;
32872;SDS011;19224;52.462;16.898;2023-12-20T02:47:34;2.60;;;2.40;;
32872;SDS011;19224;52.462;16.898;2023-12-20T02:50:05;2.47;;;2.27;;
32872;SDS011;19224;52.462;16.898;2023-12-20T02:52:36;2.62;;;2.10;;
32872;SDS011;19224;52.462;16.898;2023-12-20T02:55:06;2.42;;;2.00;;
32872;SDS011;19224;52.462;16.898;2023-12-20T02:57:37;3.83;;;2.15;;
32872;SDS011;19224;52.462;16.898;2023-12-20T03:00:11;3.15;;;2.25;;
32872;SDS011;19224;52.462;16.898;2023-12-20T03:02:42;2.27;;;2.08;;
32872;SDS011;19224;52.462;16.898;2023-12-20T03:05:12;2.27;;;2.00;;
32872;SDS011;19224;52.462;16.898;2023-12-20T03:07:42;2.30;;;2.10;;
32872;SDS011;19224;52.462;16.898;2023-12-20T03:10:13;3.62;;;2.75;;
32872;SDS011;19224;52.462;16.898;2023-12-20T03:12:44;3.52;;;3.22;;
32872;SDS011;19224;52.462;16.898;2023-12-20T03:15:16;2.33;;;2.12;;
32872;SDS011;19224;52.462;16.898;2023-12-20T03:17:52;1.98;;;1.80;;
32872;SDS011;19224;52.462;16.898;2023-12-20T03:20:23;2.22;;;1.90;;
32872;SDS011;19224;52.462;16.898;2023-12-20T03:23:03;2.17;;;1.90;;
32872;SDS011;19224;52.462;16.898;2023-12-20T03:25:36;2.12;;;1.80;;
32872;SDS011;19224;52.462;16.898;2023-12-20T03:28:10;4.60;;;1.90;;
32872;SDS011;19224;52.462;16.898;2023-12-20T03:30:42;3.27;;;2.83;;
32872;SDS011;19224;52.462;16.898;2023-12-20T03:33:17;4.30;;;2.47;;
32872;SDS011;19224;52.462;16.898;2023-12-20T03:35:50;2.50;;;2.30;;
32872;SDS011;19224;52.462;16.898;2023-12-20T03:38:23;2.33;;;1.95;;
32872;SDS011;19224;52.462;16.898;2023-12-20T03:40:55;2.10;;;1.90;;
32872;SDS011;19224;52.462;16.898;2023-12-20T03:43:26;1.92;;;1.72;;
32872;SDS011;19224;52.462;16.898;2023-12-20T03:45:56;1.80;;;1.70;;
32872;SDS011;19224;52.462;16.898;2023-12-20T03:48:30;2.17;;;1.85;;
32872;SDS011;19224;52.462;16.898;2023-12-20T03:51:07;2.40;;;2.20;;
32872;SDS011;19224;52.462;16.898;2023-12-20T03:53:41;2.33;;;2.12;;
32872;SDS011;19224;52.462;16.898;2023-12-20T03:56:15;2.00;;;1.90;;
32872;SDS011;19224;52.462;16.898;2023-12-20T03:58:45;2.27;;;2.05;;
32872;SDS011;19224;52.462;16.898;2023-12-20T04:01:16;2.37;;;2.17;;
32872;SDS011;19224;52.462;16.898;2023-12-20T04:03:46;2.20;;;2.00;;
32872;SDS011;19224;52.462;16.898;2023-12-20T04:06:23;4.08;;;2.25;;
32872;SDS011;19224;52.462;16.898;2023-12-20T04:08:55;2.27;;;2.08;;
32872;SDS011;19224;52.462;16.898;2023-12-20T04:11:28;2.15;;;1.95;;
32872;SDS011;19224;52.462;16.898;2023-12-20T04:13:58;2.10;;;1.90;;
32872;SDS011;19224;52.462;16.898;2023-12-20T04:16:28;2.10;;;1.90;;
32872;SDS011;19224;52.462;16.898;2023-12-20T04:18:58;1.95;;;1.62;;
32872;SDS011;19224;52.462;16.898;2023-12-20T04:21:29;2.10;;;1.92;;
32872;SDS011;19224;52.462;16.898;2023-12-20T04:23:59;1.90;;;1.80;;
32872;SDS011;19224;52.462;16.898;2023-12-20T04:26:30;2.25;;;1.95;;
32872;SDS011;19224;52.462;16.898;2023-12-20T04:29:00;2.33;;;1.95;;
32872;SDS011;19224;52.462;16.898;2023-12-20T04:31:31;2.02;;;1.75;;
32872;SDS011;19224;52.462;16.898;2023-12-20T04:34:02;2.40;;;1.90;;
32872;SDS011;19224;52.462;16.898;2023-12-20T04:36:33;2.15;;;1.75;;
32872;SDS011;19224;52.462;16.898;2023-12-20T04:39:03;1.90;;;1.72;;
32872;SDS011;19224;52.462;16.898;2023-12-20T04:41:37;1.80;;;1.70;;
32872;SDS011;19224;52.462;16.898;2023-12-20T04:44:11;1.80;;;1.70;;
32872;SDS011;19224;52.462;16.898;2023-12-20T04:46:41;1.67;;;1.57;;
32872;SDS011;19224;52.462;16.898;2023-12-20T04:49:12;1.70;;;1.60;;
32872;SDS011;19224;52.462;16.898;2023-12-20T04:51:42;1.70;;;1.60;;
32872;SDS011;19224;52.462;16.898;2023-12-20T04:54:15;2.50;;;2.25;;
32872;SDS011;19224;52.462;16.898;2023-12-20T04:56:46;2.70;;;2.45;;
32872;SDS011;19224;52.462;16.898;2023-12-20T04:59:20;2.33;;;1.70;;
32872;SDS011;19224;52.462;16.898;2023-12-20T05:01:51;1.90;;;1.75;;
32872;SDS011;19224;52.462;16.898;2023-12-20T05:04:29;3.83;;;1.80;;
32872;SDS011;19224;52.462;16.898;2023-12-20T05:06:59;2.12;;;1.60;;
32872;SDS011;19224;52.462;16.898;2023-12-20T05:09:31;2.55;;;1.72;;
32872;SDS011;19224;52.462;16.898;2023-12-20T05:12:02;2.08;;;1.87;;
32872;SDS011;19224;52.462;16.898;2023-12-20T05:14:32;4.28;;;2.40;;
32872;SDS011;19224;52.462;16.898;2023-12-20T05:17:03;4.05;;;2.42;;
32872;SDS011;19224;52.462;16.898;2023-12-20T05:19:34;2.17;;;1.98;;
32872;SDS011;19224;52.462;16.898;2023-12-20T05:22:04;4.42;;;2.00;;
32872;SDS011;19224;52.462;16.898;2023-12-20T05:24:39;2.20;;;2.00;;
32872;SDS011;19224;52.462;16.898;2023-12-20T05:27:10;1.80;;;1.70;;
32872;SDS011;19224;52.462;16.898;2023-12-20T05:29:40;2.42;;;2.22;;
32872;SDS011;19224;52.462;16.898;2023-12-20T05:32:10;2.08;;;1.82;;
32872;SDS011;19224;52.462;16.898;2023-12-20T05:34:41;2.50;;;2.00;;
32872;SDS011;19224;52.462;16.898;2023-12-20T05:37:11;2.17;;;1.87;;
32872;SDS011;19224;52.462;16.898;2023-12-20T05:39:41;1.95;;;1.75;;
32872;SDS011;19224;52.462;16.898;2023-12-20T05:42:11;2.05;;;1.90;;
32872;SDS011;19224;52.462;16.898;2023-12-20T05:44:42;2.40;;;2.00;;
32872;SDS011;19224;52.462;16.898;2023-12-20T05:47:12;1.72;;;1.62;;
32872;SDS011;19224;52.462;16.898;2023-12-20T05:49:43;2.10;;;1.90;;
32872;SDS011;19224;52.462;16.898;2023-12-20T05:52:14;3.83;;;1.98;;
32872;SDS011;19224;52.462;16.898;2023-12-20T05:54:45;1.70;;;1.60;;
32872;SDS011;19224;52.462;16.898;2023-12-20T05:57:15;2.75;;;1.80;;
32872;SDS011;19224;52.462;16.898;2023-12-20T05:59:45;2.33;;;1.85;;
32872;SDS011;19224;52.462;16.898;2023-12-20T06:02:16;1.92;;;1.80;;
32872;SDS011;19224;52.462;16.898;2023-12-20T06:04:49;2.67;;;1.90;;
32872;SDS011;19224;52.462;16.898;2023-12-20T06:07:20;2.10;;;1.90;;
32872;SDS011;19224;52.462;16.898;2023-12-20T06:09:51;2.58;;;2.20;;
32872;SDS011;19224;52.462;16.898;2023-12-20T06:12:21;2.42;;;2.10;;
32872;SDS011;19224;52.462;16.898;2023-12-20T06:14:51;4.03;;;2.10;;
32872;SDS011;19224;52.462;16.898;2023-12-20T06:17:21;2.58;;;2.17;;
32872;SDS011;19224;52.462;16.898;2023-12-20T06:19:52;2.37;;;2.17;;
32872;SDS011;19224;52.462;16.898;2023-12-20T06:22:22;3.15;;;2.30;;
32872;SDS011;19224;52.462;16.898;2023-12-20T06:24:52;2.87;;;2.27;;
32872;SDS011;19224;52.462;16.898;2023-12-20T06:27:22;2.00;;;1.70;;
32872;SDS011;19224;52.462;16.898;2023-12-20T06:29:53;4.12;;;1.90;;
32872;SDS011;19224;52.462;16.898;2023-12-20T06:32:23;2.67;;;2.02;;
32872;SDS011;19224;52.462;16.898;2023-12-20T06:34:54;3.20;;;2.17;;
32872;SDS011;19224;52.462;16.898;2023-12-20T06:37:24;2.87;;;2.15;;
32872;SDS011;19224;52.462;16.898;2023-12-20T06:39:54;2.10;;;1.90;;
32872;SDS011;19224;52.462;16.898;2023-12-20T06:42:24;2.60;;;2.10;;
32872;SDS011;19224;52.462;16.898;2023-12-20T06:44:55;2.65;;;2.15;;
32872;SDS011;19224;52.462;16.898;2023-12-20T06:47:25;4.60;;;2.10;;
32872;SDS011;19224;52.462;16.898;2023-12-20T06:49:56;4.05;;;2.20;;
32872;SDS011;19224;52.462;16.898;2023-12-20T06:52:31;2.95;;;2.05;;
32872;SDS011;19224;52.462;16.898;2023-12-20T06:55:07;7.40;;;2.90;;
32872;SDS011;19224;52.462;16.898;2023-12-20T06:57:39;5.90;;;2.33;;
32872;SDS011;19224;52.462;16.898;2023-12-20T07:00:11;2.87;;;2.30;;
32872;SDS011;19224;52.462;16.898;2023-12-20T07:02:43;2.95;;;1.98;;
32872;SDS011;19224;52.462;16.898;2023-12-20T07:05:19;3.27;;;2.08;;
32872;SDS011;19224;52.462;16.898;2023-12-20T07:07:50;3.05;;;2.17;;
32872;SDS011;19224;52.462;16.898;2023-12-20T07:10:24;6.40;;;2.42;;
32872;SDS011;19224;52.462;16.898;2023-12-20T07:12:54;5.00;;;2.50;;
32872;SDS011;19224;52.462;16.898;2023-12-20T07:15:26;5.20;;;2.95;;
32872;SDS011;19224;52.462;16.898;2023-12-20T07:17:57;11.97;;;3.40;;
32872;SDS011;19224;52.462;16.898;2023-12-20T07:20:31;6.20;;;2.60;;
32872;SDS011;19224;52.462;16.898;2023-12-20T07:23:04;7.12;;;3.08;;
32872;SDS011;19224;52.462;16.898;2023-12-20T07:25:39;5.42;;;2.60;;
32872;SDS011;19224;52.462;16.898;2023-12-20T07:28:09;6.15;;;2.60;;
32872;SDS011;19224;52.462;16.898;2023-12-20T07:30:39;4.00;;;2.33;;
32872;SDS011;19224;52.462;16.898;2023-12-20T07:33:10;5.90;;;2.33;;
32872;SDS011;19224;52.462;16.898;2023-12-20T07:35:40;3.62;;;2.33;;
32872;SDS011;19224;52.462;16.898;2023-12-20T07:38:12;4.10;;;2.35;;
32872;SDS011;19224;52.462;16.898;2023-12-20T07:40:42;7.62;;;2.20;;
32872;SDS011;19224;52.462;16.898;2023-12-20T07:43:13;4.53;;;2.42;;
32872;SDS011;19224;52.462;16.898;2023-12-20T07:45:43;5.10;;;2.35;;
32872;SDS011;19224;52.462;16.898;2023-12-20T07:48:14;4.60;;;2.25;;
32872;SDS011;19224;52.462;16.898;2023-12-20T07:50:44;3.70;;;2.58;;
32872;SDS011;19224;52.462;16.898;2023-12-20T07:53:18;3.37;;;2.50;;
32872;SDS011;19224;52.462;16.898;2023-12-20T07:55:48;3.80;;;2.47;;
32872;SDS011;19224;52.462;16.898;2023-12-20T07:58:22;3.95;;;2.47;;
32872;SDS011;19224;52.462;16.898;2023-12-20T08:00:52;3.27;;;2.30;;
32872;SDS011;19224;52.462;16.898;2023-12-20T08:03:22;3.75;;;2.00;;
32872;SDS011;19224;52.462;16.898;2023-12-20T08:05:53;4.12;;;2.17;;
32872;SDS011;19224;52.462;16.898;2023-12-20T08:08:24;4.28;;;2.55;;
32872;SDS011;19224;52.462;16.898;2023-12-20T08:10:54;3.33;;;2.20;;
32872;SDS011;19224;52.462;16.898;2023-12-20T08:13:29;4.15;;;2.10;;
32872;SDS011;19224;52.462;16.898;2023-12-20T08:16:03;4.72;;;2.25;;
32872;SDS011;19224;52.462;16.898;2023-12-20T08:18:33;3.47;;;2.10;;
32872;SDS011;19224;52.462;16.898;2023-12-20T08:21:04;2.80;;;2.37;;
32872;SDS011;19224;52.462;16.898;2023-12-20T08:23:37;7.58;;;2.62;;
32872;SDS011;19224;52.462;16.898;2023-12-20T08:26:10;4.12;;;2.45;;
32872;SDS011;19224;52.462;16.898;2023-12-20T08:28:42;2.85;;;2.00;;
32872;SDS011;19224;52.462;16.898;2023-12-20T08:31:13;2.40;;;1.72;;
32872;SDS011;19224;52.462;16.898;2023-12-20T08:33:46;6.03;;;2.52;;
32872;SDS011;19224;52.462;16.898;2023-12-20T08:36:17;3.77;;;2.17;;
32872;SDS011;19224;52.462;16.898;2023-12-20T08:38:53;5.28;;;2.33;;
32872;SDS011;19224;52.462;16.898;2023-12-20T08:41:24;8.75;;;2.40;;
32872;SDS011;19224;52.462;16.898;2023-12-20T08:43:54;4.28;;;1.82;;
32872;SDS011;19224;52.462;16.898;2023-12-20T08:46:24;3.52;;;1.87;;
32872;SDS011;19224;52.462;16.898;2023-12-20T08:48:54;4.90;;;2.30;;
32872;SDS011;19224;52.462;16.898;2023-12-20T08:51:25;8.70;;;2.42;;
32872;SDS011;19224;52.462;16.898;2023-12-20T08:53:55;4.60;;;2.10;;
32872;SDS011;19224;52.462;16.898;2023-12-20T08:56:25;4.80;;;2.45;;
32872;SDS011;19224;52.462;16.898;2023-12-20T08:58:55;4.03;;;1.85;;
32872;SDS011;19224;52.462;16.898;2023-12-20T09:01:40;5.10;;;2.25;;
32872;SDS011;19224;52.462;16.898;2023-12-20T09:04:00;2.77;;;1.62;;
32872;SDS011;19224;52.462;16.898;2023-12-20T09:06:36;3.30;;;2.30;;
32872;SDS011;19224;52.462;16.898;2023-12-20T09:09:07;6.55;;;2.08;;
32872;SDS011;19224;52.462;16.898;2023-12-20T09:11:39;4.55;;;2.45;;
32872;SDS011;19224;52.462;16.898;2023-12-20T09:14:09;5.97;;;2.62;;
32872;SDS011;19224;52.462;16.898;2023-12-20T09:16:40;4.62;;;2.15;;
32872;SDS011;19224;52.462;16.898;2023-12-20T09:19:10;7.47;;;2.20;;
32872;SDS011;19224;52.462;16.898;2023-12-20T09:21:40;5.12;;;2.17;;
32872;SDS011;19224;52.462;16.898;2023-12-20T09:24:12;5.55;;;2.52;;
32872;SDS011;19224;52.462;16.898;2023-12-20T09:26:43;7.97;;;2.90;;
32872;SDS011;19224;52.462;16.898;2023-12-20T09:29:13;9.18;;;3.12;;
32872;SDS011;19224;52.462;16.898;2023-12-20T09:31:43;5.35;;;2.80;;
32872;SDS011;19224;52.462;16.898;2023-12-20T09:34:15;5.35;;;2.30;;
32872;SDS011;19224;52.462;16.898;2023-12-20T09:36:57;5.08;;;2.62;;
32872;SDS011;19224;52.462;16.898;2023-12-20T09:39:32;10.18;;;3.15;;
32872;SDS011;19224;52.462;16.898;2023-12-20T09:42:05;7.60;;;2.60;;
32872;SDS011;19224;52.462;16.898;2023-12-20T09:44:37;6.55;;;2.22;;
32872;SDS011;19224;52.462;16.898;2023-12-20T09:47:09;7.30;;;2.42;;
32872;SDS011;19224;52.462;16.898;2023-12-20T09:49:42;8.95;;;2.50;;
32872;SDS011;19224;52.462;16.898;2023-12-20T09:52:22;9.80;;;2.17;;
32872;SDS011;19224;52.462;16.898;2023-12-20T09:55:11;5.40;;;2.52;;
32872;SDS011;19224;52.462;16.898;2023-12-20T09:57:28;8.05;;;2.47;;
32872;SDS011;19224;52.462;16.898;2023-12-20T10:00:04;6.30;;;2.58;;
32872;SDS011;19224;52.462;16.898;2023-12-20T10:02:32;5.20;;;2.42;;
32872;SDS011;19224;52.462;16.898;2023-12-20T10:05:07;7.15;;;2.70;;
32872;SDS011;19224;52.462;16.898;2023-12-20T10:07:39;5.65;;;2.60;;
32872;SDS011;19224;52.462;16.898;2023-12-20T10:10:09;6.58;;;2.62;;
32872;SDS011;19224;52.462;16.898;2023-12-20T10:13:05;11.05;;;3.25;;
32872;SDS011;19224;52.462;16.898;2023-12-20T10:15:36;6.97;;;3.00;;
32872;SDS011;19224;52.462;16.898;2023-12-20T10:18:13;4.72;;;2.60;;
32872;SDS011;19224;52.462;16.898;2023-12-20T10:20:44;6.33;;;2.80;;
32872;SDS011;19224;52.462;16.898;2023-12-20T10:23:15;8.70;;;2.65;;
32872;SDS011;19224;52.462;16.898;2023-12-20T10:25:57;5.60;;;2.70;;
32872;SDS011;19224;52.462;16.898;2023-12-20T10:28:33;12.03;;;5.90;;
32872;SDS011;19224;52.462;16.898;2023-12-20T10:31:04;10.88;;;4.05;;
32872;SDS011;19224;52.462;16.898;2023-12-20T10:33:35;15.53;;;7.78;;
32872;SDS011;19224;52.462;16.898;2023-12-20T10:36:06;21.05;;;10.63;;
32872;SDS011;19224;52.462;16.898;2023-12-20T10:38:51;21.80;;;11.38;;
32872;SDS011;19224;52.462;16.898;2023-12-20T10:41:29;20.17;;;8.45;;
32872;SDS011;19224;52.462;16.898;2023-12-20T10:44:07;22.98;;;9.20;;
32872;SDS011;19224;52.462;16.898;2023-12-20T10:46:41;16.97;;;7.00;;
32872;SDS011;19224;52.462;16.898;2023-12-20T10:49:15;16.02;;;6.90;;
32872;SDS011;19224;52.462;16.898;2023-12-20T10:51:47;16.17;;;5.70;;
32872;SDS011;19224;52.462;16.898;2023-12-20T10:54:19;12.18;;;3.55;;
32872;SDS011;19224;52.462;16.898;2023-12-20T10:56:54;6.03;;;3.00;;
32872;SDS011;19224;52.462;16.898;2023-12-20T10:59:26;8.18;;;2.83;;
32872;SDS011;19224;52.462;16.898;2023-12-20T11:01:58;4.80;;;2.00;;
32872;SDS011;19224;52.462;16.898;2023-12-20T11:10:23;8.38;;;2.62;;
32872;SDS011;19224;52.462;16.898;2023-12-20T11:12:52;6.12;;;2.30;;
32872;SDS011;19224;52.462;16.898;2023-12-20T11:15:26;6.72;;;2.25;;
32872;SDS011;19224;52.462;16.898;2023-12-20T11:17:57;5.80;;;1.85;;
32872;SDS011;19224;52.462;16.898;2023-12-20T11:20:38;8.73;;;2.77;;
32872;SDS011;19224;52.462;16.898;2023-12-20T11:23:10;3.30;;;1.82;;
32872;SDS011;19224;52.462;16.898;2023-12-20T11:25:55;6.17;;;2.08;;
32872;SDS011;19224;52.462;16.898;2023-12-20T11:28:29;8.23;;;2.20;;
32872;SDS011;19224;52.462;16.898;2023-12-20T11:31:03;7.45;;;2.17;;
32872;SDS011;19224;52.462;16.898;2023-12-20T11:33:37;6.53;;;2.08;;
32872;SDS011;19224;52.462;16.898;2023-12-20T11:36:15;6.15;;;1.95;;
32872;SDS011;19224;52.462;16.898;2023-12-20T11:38:59;8.25;;;2.60;;
32872;SDS011;19224;52.462;16.898;2023-12-20T11:41:27;7.17;;;2.12;;
32872;SDS011;19224;52.462;16.898;2023-12-20T11:43:57;8.20;;;2.08;;
32872;SDS011;19224;52.462;16.898;2023-12-20T11:46:28;4.67;;;2.08;;
32872;SDS011;19224;52.462;16.898;2023-12-20T11:49:00;7.03;;;2.25;;
32872;SDS011;19224;52.462;16.898;2023-12-20T11:51:31;6.67;;;2.10;;
32872;SDS011;19224;52.462;16.898;2023-12-20T11:54:01;10.38;;;2.20;;
32872;SDS011;19224;52.462;16.898;2023-12-20T11:56:32;7.47;;;2.47;;
32872;SDS011;19224;52.462;16.898;2023-12-20T11:59:02;4.70;;;1.80;;
32872;SDS011;19224;52.462;16.898;2023-12-20T12:01:33;4.78;;;1.65;;
32872;SDS011;19224;52.462;16.898;2023-12-20T12:04:09;8.10;;;1.82;;
32872;SDS011;19224;52.462;16.898;2023-12-20T12:06:35;5.47;;;2.20;;
32872;SDS011;19224;52.462;16.898;2023-12-20T12:09:05;6.28;;;2.12;;
32872;SDS011;19224;52.462;16.898;2023-12-20T12:11:35;4.12;;;2.08;;
32872;SDS011;19224;52.462;16.898;2023-12-20T12:14:06;15.90;;;5.65;;
32872;SDS011;19224;52.462;16.898;2023-12-20T12:16:37;18.37;;;6.30;;
32872;SDS011;19224;52.462;16.898;2023-12-20T12:19:14;6.90;;;2.45;;
32872;SDS011;19224;52.462;16.898;2023-12-20T12:22:06;11.05;;;4.55;;
32872;SDS011;19224;52.462;16.898;2023-12-20T12:24:40;11.15;;;4.12;;
32872;SDS011;19224;52.462;16.898;2023-12-20T12:27:12;5.20;;;2.10;;
32872;SDS011;19224;52.462;16.898;2023-12-20T12:30:06;6.67;;;2.30;;
32872;SDS011;19224;52.462;16.898;2023-12-20T12:32:34;7.05;;;2.55;;
32872;SDS011;19224;52.462;16.898;2023-12-20T12:35:06;9.20;;;3.12;;
32872;SDS011;19224;52.462;16.898;2023-12-20T12:37:37;4.50;;;2.35;;
32872;SDS011;19224;52.462;16.898;2023-12-20T12:40:10;4.58;;;2.15;;
32872;SDS011;19224;52.462;16.898;2023-12-20T12:42:44;5.78;;;2.02;;
32872;SDS011;19224;52.462;16.898;2023-12-20T12:45:15;6.00;;;2.00;;
32872;SDS011;19224;52.462;16.898;2023-12-20T12:47:45;9.70;;;2.15;;
32872;SDS011;19224;52.462;16.898;2023-12-20T12:50:16;8.03;;;2.65;;
32872;SDS011;19224;52.462;16.898;2023-12-20T12:52:46;5.53;;;2.25;;
32872;SDS011;19224;52.462;16.898;2023-12-20T12:55:17;4.95;;;2.37;;
32872;SDS011;19224;52.462;16.898;2023-12-20T12:57:47;7.65;;;2.60;;
32872;SDS011;19224;52.462;16.898;2023-12-20T13:00:18;7.92;;;2.30;;
32872;SDS011;19224;52.462;16.898;2023-12-20T13:02:49;6.75;;;2.42;;
32872;SDS011;19224;52.462;16.898;2023-12-20T13:05:19;8.58;;;2.17;;
32872;SDS011;19224;52.462;16.898;2023-12-20T13:07:49;8.88;;;2.20;;
32872;SDS011;19224;52.462;16.898;2023-12-20T13:10:20;4.87;;;2.10;;
32872;SDS011;19224;52.462;16.898;2023-12-20T13:12:50;4.75;;;2.08;;
32872;SDS011;19224;52.462;16.898;2023-12-20T13:15:20;9.43;;;1.90;;
32872;SDS011;19224;52.462;16.898;2023-12-20T13:17:51;5.80;;;2.15;;
32872;SDS011;19224;52.462;16.898;2023-12-20T13:20:21;10.25;;;2.35;;
32872;SDS011;19224;52.462;16.898;2023-12-20T13:22:51;7.62;;;2.47;;
32872;SDS011;19224;52.462;16.898;2023-12-20T13:25:21;12.07;;;2.62;;
32872;SDS011;19224;52.462;16.898;2023-12-20T13:27:52;5.78;;;2.30;;
32872;SDS011;19224;52.462;16.898;2023-12-20T13:30:23;8.95;;;2.47;;
32872;SDS011;19224;52.462;16.898;2023-12-20T13:32:53;7.50;;;2.17;;
32872;SDS011;19224;52.462;16.898;2023-12-20T13:35:24;8.70;;;1.90;;
32872;SDS011;19224;52.462;16.898;2023-12-20T13:37:55;7.62;;;2.40;;
32872;SDS011;19224;52.462;16.898;2023-12-20T13:40:25;6.85;;;2.70;;
32872;SDS011;19224;52.462;16.898;2023-12-20T13:42:56;8.65;;;3.40;;
32872;SDS011;19224;52.462;16.898;2023-12-20T13:45:26;9.48;;;2.75;;
32872;SDS011;19224;52.462;16.898;2023-12-20T13:47:56;8.35;;;2.35;;
32872;SDS011;19224;52.462;16.898;2023-12-20T13:50:27;5.28;;;2.08;;
32872;SDS011;19224;52.462;16.898;2023-12-20T13:52:58;9.20;;;2.08;;
32872;SDS011;19224;52.462;16.898;2023-12-20T13:55:29;8.58;;;2.83;;
32872;SDS011;19224;52.462;16.898;2023-12-20T13:58:00;7.83;;;2.65;;
32872;SDS011;19224;52.462;16.898;2023-12-20T14:00:30;8.75;;;2.30;;
32872;SDS011;19224;52.462;16.898;2023-12-20T14:03:00;5.50;;;1.85;;
32872;SDS011;19224;52.462;16.898;2023-12-20T14:05:31;6.10;;;2.35;;
32872;SDS011;19224;52.462;16.898;2023-12-20T14:08:02;13.03;;;5.35;;
32872;SDS011;19224;52.462;16.898;2023-12-20T14:10:32;15.32;;;6.78;;
32872;SDS011;19224;52.462;16.898;2023-12-20T14:13:03;8.73;;;3.35;;
32872;SDS011;19224;52.462;16.898;2023-12-20T14:15:33;5.87;;;2.10;;
32872;SDS011;19224;52.462;16.898;2023-12-20T14:18:05;7.85;;;2.55;;
32872;SDS011;19224;52.462;16.898;2023-12-20T14:20:36;6.42;;;2.37;;
32872;SDS011;19224;52.462;16.898;2023-12-20T14:23:07;11.53;;;2.95;;
32872;SDS011;19224;52.462;16.898;2023-12-20T14:25:38;7.75;;;2.80;;
32872;SDS011;19224;52.462;16.898;2023-12-20T14:28:10;7.08;;;2.30;;
32872;SDS011;19224;52.462;16.898;2023-12-20T14:30:41;9.10;;;2.65;;
32872;SDS011;19224;52.462;16.898;2023-12-20T14:33:12;11.78;;;3.17;;
32872;SDS011;19224;52.462;16.898;2023-12-20T14:35:42;8.40;;;3.05;;
32872;SDS011;19224;52.462;16.898;2023-12-20T14:38:12;6.92;;;2.60;;
32872;SDS011;19224;52.462;16.898;2023-12-20T14:40:43;11.30;;;3.98;;
32872;SDS011;19224;52.462;16.898;2023-12-20T14:43:13;8.03;;;2.80;;
32872;SDS011;19224;52.462;16.898;2023-12-20T14:45:44;8.63;;;2.45;;
32872;SDS011;19224;52.462;16.898;2023-12-20T14:48:14;7.03;;;2.10;;
32872;SDS011;19224;52.462;16.898;2023-12-20T14:50:48;8.78;;;2.95;;
32872;SDS011;19224;52.462;16.898;2023-12-20T14:53:20;10.48;;;2.45;;
32872;SDS011;19224;52.462;16.898;2023-12-20T14:55:50;8.38;;;2.65;;
32872;SDS011;19224;52.462;16.898;2023-12-20T14:58:21;10.03;;;2.98;;
32872;SDS011;19224;52.462;16.898;2023-12-20T15:00:51;6.95;;;2.47;;
32872;SDS011;19224;52.462;16.898;2023-12-20T15:03:23;12.25;;;3.08;;
32872;SDS011;19224;52.462;16.898;2023-12-20T15:05:54;6.40;;;2.77;;